createdAt,value
2022-10-19T00:00:04.739Z,20.50
2022-10-19T00:02:57.124Z,20.30
2022-10-19T00:05:31.858Z,21.40
2022-10-19T00:08:05.693Z,23.80
2022-10-19T00:10:44.132Z,24.90
2022-10-19T00:13:20.413Z,26.80
2022-10-19T00:15:54.982Z,26.00
2022-10-19T00:18:30.508Z,24.70
2022-10-19T00:21:11.504Z,24.30
2022-10-19T00:23:44.883Z,24.60
2022-10-19T00:26:17.723Z,24.00
2022-10-19T00:28:51.385Z,23.10
2022-10-19T00:31:23.891Z,21.60
2022-10-19T00:34:00.337Z,23.10
2022-10-19T00:36:34.294Z,22.80
2022-10-19T00:39:10.069Z,23.60
2022-10-19T00:41:43.075Z,24.40
2022-10-19T00:44:46.370Z,25.60
2022-10-19T00:47:19.630Z,24.50
2022-10-19T00:49:54.150Z,25.00
2022-10-19T00:52:30.086Z,25.20
2022-10-19T00:55:04.757Z,27.10
2022-10-19T00:57:36.811Z,28.30
2022-10-19T01:00:13.515Z,29.10
2022-10-19T01:02:48.930Z,27.80
2022-10-19T01:05:21.994Z,27.40
2022-10-19T01:07:55.353Z,26.50
2022-10-19T01:10:45.308Z,26.20
2022-10-19T01:13:28.938Z,27.50
2022-10-19T01:16:06.674Z,28.00
2022-10-19T01:18:45.017Z,27.60
2022-10-19T01:21:22.742Z,26.00
2022-10-19T01:24:24.242Z,25.40
2022-10-19T01:27:38.960Z,25.60
2022-10-19T01:30:15.051Z,25.10
2022-10-19T01:33:04.161Z,23.80
2022-10-19T01:35:41.771Z,24.40
2022-10-19T01:38:22.015Z,23.80
2022-10-19T01:41:05.086Z,24.10
2022-10-19T01:43:43.040Z,23.20
2022-10-19T01:46:18.412Z,23.50
2022-10-19T01:48:56.271Z,24.50
2022-10-19T01:51:31.656Z,24.10
2022-10-19T01:54:06.313Z,26.00
2022-10-19T01:56:42.251Z,26.50
2022-10-19T01:59:14.763Z,29.40
2022-10-19T02:01:47.965Z,26.40
2022-10-19T02:04:24.467Z,25.80
2022-10-19T02:06:58.613Z,26.30
2022-10-19T02:09:32.244Z,25.60
2022-10-19T02:12:07.028Z,25.90
2022-10-19T02:14:44.654Z,26.20
2022-10-19T02:17:19.971Z,26.30
2022-10-19T02:19:54.380Z,26.10
2022-10-19T02:22:27.773Z,26.10
2022-10-19T02:25:00.820Z,24.60
2022-10-19T02:27:36.332Z,23.60
2022-10-19T02:30:11.474Z,23.00
2022-10-19T02:32:44.214Z,22.90
2022-10-19T02:35:17.895Z,22.90
2022-10-19T02:37:51.019Z,23.90
2022-10-19T02:40:27.329Z,24.00
2022-10-19T02:43:02.988Z,25.00
2022-10-19T02:45:39.403Z,25.20
2022-10-19T02:48:15.077Z,24.70
2022-10-19T02:50:48.756Z,27.50
2022-10-19T02:53:49.416Z,28.30
2022-10-19T03:00:47.165Z,31.60
2022-10-19T03:03:21.432Z,33.50
2022-10-19T03:05:57.985Z,37.80
2022-10-19T03:08:33.871Z,41.40
2022-10-19T03:11:09.714Z,41.30
2022-10-19T03:13:44.037Z,38.00
2022-10-19T03:16:18.311Z,37.10
2022-10-19T03:18:52.506Z,28.10
2022-10-19T03:21:29.822Z,20.40
2022-10-19T03:24:06.148Z,21.20
2022-10-19T03:26:38.790Z,21.60
2022-10-19T03:29:13.289Z,19.40
2022-10-19T03:31:45.631Z,34.20
2022-10-19T03:34:18.521Z,34.30
2022-10-19T03:36:53.180Z,26.00
2022-10-19T03:39:25.276Z,22.50
2022-10-19T03:41:57.308Z,18.00
2022-10-19T03:44:32.038Z,18.00
2022-10-19T03:47:05.068Z,18.60
2022-10-19T03:49:39.558Z,26.10
2022-10-19T03:52:17.072Z,21.40
2022-10-19T03:54:54.647Z,24.30
2022-10-19T03:57:26.890Z,37.60
2022-10-19T04:00:04.549Z,23.60
2022-10-19T04:02:37.827Z,25.80
2022-10-19T04:05:11.959Z,24.70
2022-10-19T04:07:45.226Z,23.80
2022-10-19T04:10:18.475Z,21.40
2022-10-19T04:12:53.801Z,22.90
2022-10-19T04:15:27.613Z,33.30
2022-10-19T04:18:00.088Z,32.90
2022-10-19T04:20:35.827Z,48.40
2022-10-19T04:23:09.039Z,26.60
2022-10-19T04:25:41.828Z,22.40
2022-10-19T04:28:14.817Z,33.90
2022-10-19T04:30:47.127Z,24.60
2022-10-19T04:33:18.929Z,24.60
2022-10-19T04:35:50.864Z,23.40
2022-10-19T04:38:22.559Z,25.20
2022-10-19T04:40:55.588Z,55.00
2022-10-19T04:43:28.589Z,24.50
2022-10-19T04:46:05.882Z,24.30
2022-10-19T04:48:40.023Z,24.70
2022-10-19T04:51:15.182Z,26.80
2022-10-19T04:53:49.557Z,26.20
2022-10-19T04:56:26.309Z,30.40
2022-10-19T04:59:00.300Z,23.60
2022-10-19T05:01:33.243Z,23.00
2022-10-19T05:04:08.461Z,23.80
2022-10-19T05:06:42.000Z,26.10
2022-10-19T05:09:13.992Z,26.60
2022-10-19T05:11:47.925Z,22.70
2022-10-19T05:14:24.218Z,22.60
2022-10-19T05:16:56.230Z,24.70
2022-10-19T05:19:29.998Z,22.60
2022-10-19T05:22:03.368Z,23.10
2022-10-19T05:24:37.264Z,24.60
2022-10-19T05:27:09.410Z,23.30
2022-10-19T05:29:42.258Z,27.30
2022-10-19T05:32:19.506Z,25.80
2022-10-19T05:34:52.736Z,25.20
2022-10-19T05:37:25.864Z,26.80
2022-10-19T05:39:59.020Z,27.10
2022-10-19T05:42:31.141Z,28.60
2022-10-19T05:45:05.986Z,29.10
2022-10-19T05:47:41.087Z,30.30
2022-10-19T05:50:19.508Z,27.80
2022-10-19T05:52:52.389Z,33.90
2022-10-19T05:55:26.507Z,32.80
2022-10-19T05:57:59.635Z,29.90
2022-10-19T06:00:34.041Z,42.70
2022-10-19T06:03:08.832Z,29.50
2022-10-19T06:05:41.626Z,36.90
2022-10-19T06:08:14.200Z,26.80
2022-10-19T06:10:48.302Z,23.30
2022-10-19T06:13:24.412Z,24.30
2022-10-19T06:15:57.945Z,24.50
2022-10-19T06:18:32.320Z,29.10
2022-10-19T06:21:07.658Z,32.80
2022-10-19T06:26:20.793Z,32.00
2022-10-19T06:28:54.106Z,34.20
2022-10-19T06:31:27.255Z,30.70
2022-10-19T06:34:04.241Z,34.70
2022-10-19T06:36:39.019Z,28.90
2022-10-19T06:39:11.039Z,27.80
2022-10-19T06:41:45.373Z,29.30
2022-10-19T06:44:19.091Z,28.60
2022-10-19T06:46:51.687Z,30.10
2022-10-19T06:49:24.092Z,30.10
2022-10-19T06:51:56.785Z,32.60
2022-10-19T06:54:30.904Z,30.10
2022-10-19T06:57:03.527Z,28.20
2022-10-19T06:59:36.136Z,27.20
2022-10-19T07:02:10.983Z,29.00
2022-10-19T07:04:42.755Z,27.50
2022-10-19T07:07:15.359Z,28.10
2022-10-19T07:09:48.075Z,27.50
2022-10-19T07:12:22.054Z,26.20
2022-10-19T07:14:59.647Z,27.60
2022-10-19T07:17:33.308Z,26.40
2022-10-19T07:20:08.340Z,25.50
2022-10-19T07:22:41.474Z,25.50
2022-10-19T07:25:16.762Z,25.20
2022-10-19T07:27:49.199Z,26.30
2022-10-19T07:30:23.674Z,22.70
2022-10-19T07:32:56.666Z,24.30
2022-10-19T07:35:31.604Z,25.40
2022-10-19T07:38:04.463Z,22.90
2022-10-19T07:40:36.865Z,21.70
2022-10-19T07:43:11.345Z,21.70
2022-10-19T07:45:44.694Z,20.10
2022-10-19T07:48:17.357Z,21.50
2022-10-19T07:50:51.905Z,20.70
2022-10-19T07:53:25.130Z,20.30
2022-10-19T07:55:57.945Z,16.70
2022-10-19T07:58:32.712Z,13.40
2022-10-19T08:01:07.300Z,15.60
2022-10-19T08:04:31.818Z,16.00
2022-10-19T08:06:36.767Z,12.60
2022-10-19T08:09:09.101Z,12.00
2022-10-19T08:11:41.609Z,13.90
2022-10-19T08:14:14.140Z,12.30
2022-10-19T08:16:49.986Z,14.10
2022-10-19T08:19:24.569Z,13.30
2022-10-19T08:21:57.391Z,10.90
2022-10-19T08:24:29.901Z,12.10
2022-10-19T08:27:05.693Z,11.40
2022-10-19T08:29:40.212Z,12.90
2022-10-19T08:32:16.168Z,10.00
2022-10-19T08:34:48.095Z,11.60
2022-10-19T08:37:43.775Z,8.30
2022-10-19T08:40:22.452Z,11.30
2022-10-19T08:42:58.835Z,11.10
2022-10-19T08:45:42.890Z,12.00
2022-10-19T08:48:28.978Z,11.90
2022-10-19T08:51:03.310Z,12.20
2022-10-19T08:53:41.072Z,10.50
2022-10-19T08:56:45.819Z,12.10
2022-10-19T08:59:19.381Z,10.20
2022-10-19T09:01:55.123Z,9.60
2022-10-19T09:04:30.466Z,10.50
2022-10-19T09:07:21.188Z,8.40
2022-10-19T09:09:59.652Z,10.00
2022-10-19T09:12:41.500Z,11.10
2022-10-19T09:15:17.263Z,9.70
2022-10-19T09:17:50.266Z,10.80
2022-10-19T09:20:27.106Z,11.70
2022-10-19T09:23:11.111Z,8.60
2022-10-19T09:25:46.842Z,8.10
2022-10-19T09:28:36.659Z,8.40
2022-10-19T09:31:17.341Z,6.80
2022-10-19T09:33:55.923Z,10.20
2022-10-19T09:36:56.612Z,9.50
2022-10-19T09:39:32.154Z,7.80
2022-10-19T09:42:09.397Z,7.90
2022-10-19T09:44:45.194Z,8.50
2022-10-19T09:47:30.891Z,13.30
2022-10-19T09:50:19.654Z,11.20
2022-10-19T09:52:52.978Z,9.70
2022-10-19T09:55:30.763Z,8.00
2022-10-19T09:58:06.127Z,9.60
2022-10-19T10:00:42.465Z,8.00
2022-10-19T10:03:27.283Z,9.20
2022-10-19T10:06:03.578Z,10.40
2022-10-19T10:08:37.953Z,10.10
2022-10-19T10:11:14.631Z,7.10
2022-10-19T10:13:52.449Z,7.80
2022-10-19T10:16:25.869Z,7.30
2022-10-19T10:19:01.687Z,5.90
2022-10-19T10:21:37.097Z,7.60
2022-10-19T10:24:20.834Z,7.80
2022-10-19T10:26:57.101Z,6.90
2022-10-19T10:29:35.351Z,8.90
2022-10-19T10:32:13.473Z,6.60
2022-10-19T10:34:53.823Z,6.60
2022-10-19T10:37:38.469Z,10.30
2022-10-19T10:40:23.826Z,12.40
2022-10-19T10:42:58.160Z,9.60
2022-10-19T10:45:35.320Z,7.90
2022-10-19T10:48:27.256Z,10.90
2022-10-19T10:51:00.612Z,7.30
2022-10-19T10:53:38.861Z,12.60
2022-10-19T10:56:26.571Z,11.30
2022-10-19T10:59:04.314Z,9.30
2022-10-19T11:01:41.530Z,14.30
2022-10-19T11:04:18.352Z,7.50
2022-10-19T11:06:54.965Z,12.70
2022-10-19T11:09:31.334Z,10.00
2022-10-19T11:12:06.787Z,10.40
2022-10-19T11:14:47.588Z,8.40
2022-10-19T11:17:22.980Z,11.30
2022-10-19T11:19:56.836Z,10.40
2022-10-19T11:22:33.772Z,10.10
2022-10-19T11:25:21.274Z,9.20
2022-10-19T11:28:02.616Z,6.50
2022-10-19T11:30:41.570Z,8.00
2022-10-19T11:33:21.905Z,7.80
2022-10-19T11:35:55.088Z,8.00
2022-10-19T11:38:35.538Z,6.60
2022-10-19T11:41:19.471Z,6.70
2022-10-19T11:44:03.904Z,4.80
2022-10-19T11:46:40.342Z,6.90
2022-10-19T11:49:23.315Z,6.30
2022-10-19T11:52:02.955Z,6.20
2022-10-19T11:54:46.336Z,7.10
2022-10-19T11:57:21.636Z,6.10
2022-10-19T12:00:33.887Z,8.30
2022-10-19T12:03:16.675Z,6.30
2022-10-19T12:06:01.043Z,8.70
2022-10-19T12:08:56.978Z,7.30
2022-10-19T12:11:42.619Z,8.00
2022-10-19T12:14:18.183Z,10.70
2022-10-19T12:16:57.991Z,8.10
2022-10-19T12:19:34.970Z,8.10
2022-10-19T12:22:13.060Z,8.00
2022-10-19T12:24:46.591Z,11.90
2022-10-19T12:27:21.790Z,11.30
2022-10-19T12:29:55.793Z,9.50
2022-10-19T12:32:28.293Z,5.20
2022-10-19T12:35:07.059Z,5.50
2022-10-19T12:37:46.959Z,6.20
2022-10-19T12:40:27.101Z,6.40
2022-10-19T12:43:05.023Z,5.10
2022-10-19T12:45:38.784Z,4.20
2022-10-19T12:48:25.849Z,6.90
2022-10-19T12:51:12.306Z,7.20
2022-10-19T12:53:47.747Z,5.60
2022-10-19T12:56:22.686Z,9.10
2022-10-19T12:58:59.802Z,5.60
2022-10-19T13:01:44.468Z,6.20
2022-10-19T13:04:19.995Z,8.40
2022-10-19T13:07:00.452Z,5.20
2022-10-19T13:09:34.936Z,5.70
2022-10-19T13:12:47.284Z,5.70
2022-10-19T13:15:58.801Z,5.40
2022-10-19T13:19:09.275Z,7.40
2022-10-19T13:22:13.846Z,4.50
2022-10-19T13:25:34.100Z,4.80
2022-10-19T13:28:42.506Z,7.40
2022-10-19T13:31:33.419Z,6.60
2022-10-19T13:34:13.515Z,6.50
2022-10-19T13:37:02.345Z,9.60
2022-10-19T13:39:40.759Z,6.90
2022-10-19T13:42:26.678Z,7.90
2022-10-19T13:44:59.210Z,5.20
2022-10-19T13:47:39.333Z,6.70
2022-10-19T13:50:29.791Z,7.20
2022-10-19T13:53:29.680Z,11.20
2022-10-19T13:59:51.976Z,5.70
2022-10-19T14:02:42.315Z,5.30
2022-10-19T14:05:33.946Z,9.50
2022-10-19T14:08:15.150Z,9.40
2022-10-19T14:11:00.751Z,12.40
2022-10-19T14:13:34.917Z,6.40
2022-10-19T14:16:21.461Z,8.60
2022-10-19T14:18:58.473Z,8.50
2022-10-19T14:21:37.018Z,6.80
2022-10-19T14:24:22.547Z,5.70
2022-10-19T14:26:57.875Z,7.20
2022-10-19T14:29:31.134Z,4.90
2022-10-19T14:32:06.295Z,4.80
2022-10-19T14:34:44.278Z,4.90
2022-10-19T14:37:22.437Z,4.50
2022-10-19T14:40:08.914Z,3.80
2022-10-19T14:42:46.457Z,5.60
2022-10-19T14:45:22.166Z,4.70
2022-10-19T14:48:08.267Z,15.00
2022-10-19T14:50:46.794Z,31.50
2022-10-19T14:53:36.847Z,46.00
2022-10-19T14:56:12.665Z,43.30
2022-10-19T14:58:49.390Z,51.90
2022-10-19T15:01:23.076Z,23.20
2022-10-19T15:03:56.255Z,40.20
2022-10-19T15:06:30.165Z,24.30
2022-10-19T15:09:07.363Z,11.40
2022-10-19T15:11:49.919Z,40.90
2022-10-19T15:14:25.899Z,14.60
2022-10-19T15:17:03.047Z,19.50
2022-10-19T15:19:41.077Z,26.70
2022-10-19T15:22:18.809Z,21.70
2022-10-19T15:25:20.731Z,20.10
2022-10-19T15:27:54.549Z,14.60
2022-10-19T15:30:29.888Z,9.00
2022-10-19T15:33:16.120Z,10.90
2022-10-19T15:35:51.111Z,11.50
2022-10-19T15:38:26.321Z,13.80
2022-10-19T15:41:01.302Z,9.60
2022-10-19T15:43:52.270Z,9.10
2022-10-19T15:46:28.382Z,12.30
2022-10-19T15:49:04.611Z,20.60
2022-10-19T15:51:39.240Z,10.50
2022-10-19T15:54:11.918Z,14.20
2022-10-19T15:56:47.102Z,12.60
2022-10-19T15:59:21.072Z,12.20
2022-10-19T16:01:56.342Z,12.00
2022-10-19T16:04:29.280Z,14.80
2022-10-19T16:07:01.067Z,16.40
2022-10-19T16:09:34.849Z,15.00
2022-10-19T16:12:07.789Z,16.50
2022-10-19T16:14:40.298Z,16.90
2022-10-19T16:17:15.007Z,17.20
2022-10-19T16:19:48.576Z,23.60
2022-10-19T16:22:23.123Z,28.80
2022-10-19T16:24:55.467Z,23.40
2022-10-19T16:27:28.691Z,21.50
2022-10-19T16:30:04.488Z,21.70
2022-10-19T16:32:37.771Z,19.50
2022-10-19T16:35:16.607Z,17.20
2022-10-19T16:37:48.423Z,14.80
2022-10-19T16:40:23.279Z,21.10
2022-10-19T16:42:58.847Z,23.20
2022-10-19T16:45:32.954Z,20.00
2022-10-19T16:48:06.558Z,20.40
2022-10-19T16:50:39.264Z,20.50
2022-10-19T16:53:13.099Z,20.40
2022-10-19T16:55:46.380Z,23.50
2022-10-19T16:58:18.678Z,18.80
2022-10-19T17:00:51.523Z,17.20
2022-10-19T17:03:24.711Z,18.10
2022-10-19T17:05:57.507Z,20.20
2022-10-19T17:08:36.843Z,23.80
2022-10-19T17:11:19.733Z,23.00
2022-10-19T17:13:56.047Z,15.10
2022-10-19T17:16:30.663Z,24.50
2022-10-19T17:19:05.954Z,18.30
2022-10-19T17:21:40.227Z,14.10
2022-10-19T17:24:21.672Z,16.00
2022-10-19T17:26:56.236Z,14.10
2022-10-19T17:29:32.535Z,13.20
2022-10-19T17:32:07.418Z,12.30
2022-10-19T17:34:41.484Z,13.80
2022-10-19T17:37:15.250Z,14.90
2022-10-19T17:39:51.478Z,12.40
2022-10-19T17:42:24.165Z,17.80
2022-10-19T17:44:59.807Z,17.60
2022-10-19T17:47:32.515Z,16.00
2022-10-19T17:50:06.296Z,17.90
2022-10-19T17:52:39.269Z,18.50
2022-10-19T17:55:13.091Z,17.80
2022-10-19T17:57:48.209Z,18.90
2022-10-19T18:00:21.682Z,23.20
2022-10-19T18:02:54.583Z,25.90
2022-10-19T18:05:28.205Z,37.60
2022-10-19T18:08:00.419Z,22.10
2022-10-19T18:10:35.785Z,20.20
2022-10-19T18:13:09.769Z,19.30
2022-10-19T18:15:42.336Z,22.60
2022-10-19T18:18:14.783Z,18.40
2022-10-19T18:20:46.993Z,17.30
2022-10-19T18:23:20.560Z,22.10
2022-10-19T18:25:55.392Z,17.70
2022-10-19T18:28:28.933Z,18.90
2022-10-19T18:31:08.346Z,20.20
2022-10-19T18:33:42.058Z,24.90
2022-10-19T18:36:15.274Z,20.40
2022-10-19T18:38:52.002Z,18.80
2022-10-19T18:41:26.140Z,17.20
2022-10-19T18:44:01.453Z,21.20
2022-10-19T18:46:38.808Z,28.10
2022-10-19T18:49:12.862Z,18.60
2022-10-19T18:51:50.746Z,14.10
2022-10-19T18:54:29.031Z,23.00
2022-10-19T18:57:04.057Z,13.70
2022-10-19T18:59:37.507Z,18.30
2022-10-19T19:02:17.114Z,35.50
2022-10-19T19:04:57.440Z,19.00
2022-10-19T19:07:30.219Z,13.10
2022-10-19T19:10:04.104Z,11.10
2022-10-19T19:12:39.276Z,17.60
2022-10-19T19:15:13.095Z,24.00
2022-10-19T19:17:46.243Z,15.30
2022-10-19T19:20:18.708Z,21.70
2022-10-19T19:22:51.037Z,21.50
2022-10-19T19:25:25.006Z,21.50
2022-10-19T19:27:56.862Z,19.00
2022-10-19T19:30:32.514Z,18.10
2022-10-19T19:33:05.965Z,15.20
2022-10-19T19:35:49.326Z,39.90
2022-10-19T19:38:21.645Z,38.30
2022-10-19T19:40:57.211Z,29.60
2022-10-19T19:43:29.431Z,19.40
2022-10-19T19:46:07.881Z,12.70
2022-10-19T19:48:44.063Z,25.80
2022-10-19T19:51:23.935Z,22.80
2022-10-19T19:53:57.168Z,28.80
2022-10-19T19:56:34.793Z,25.00
2022-10-19T19:59:07.131Z,26.70
2022-10-19T20:01:40.528Z,32.00
2022-10-19T20:04:14.160Z,24.00
2022-10-19T20:06:46.503Z,44.10
2022-10-19T20:09:18.947Z,21.00
2022-10-19T20:11:51.745Z,13.60
2022-10-19T20:14:25.746Z,13.70
2022-10-19T20:17:01.380Z,15.10
2022-10-19T20:19:36.994Z,12.60
2022-10-19T20:22:09.831Z,14.40
2022-10-19T20:24:43.338Z,12.10
2022-10-19T20:27:18.487Z,14.10
2022-10-19T20:29:59.280Z,20.40
2022-10-19T20:32:34.334Z,18.10
2022-10-19T20:35:08.598Z,18.00
2022-10-19T20:37:41.226Z,23.60
2022-10-19T20:40:16.950Z,22.20
2022-10-19T20:42:51.539Z,16.80
2022-10-19T20:45:25.898Z,16.40
2022-10-19T20:47:58.869Z,16.70
2022-10-19T20:50:32.439Z,16.10
2022-10-19T20:53:07.141Z,13.70
2022-10-19T20:55:40.451Z,14.10
2022-10-19T20:58:13.733Z,11.80
2022-10-19T21:00:47.164Z,12.20
2022-10-19T21:03:22.354Z,9.70
2022-10-19T21:05:55.048Z,10.80
2022-10-19T21:08:29.593Z,9.50
2022-10-19T21:11:05.792Z,11.00
2022-10-19T21:13:38.417Z,10.30
2022-10-19T21:16:17.662Z,11.30
2022-10-19T21:18:50.968Z,13.60
2022-10-19T21:21:27.211Z,12.50
2022-10-19T21:24:04.339Z,12.20
2022-10-19T21:26:38.189Z,12.90
2022-10-19T21:29:11.424Z,31.20
2022-10-19T21:31:47.933Z,15.30
2022-10-19T21:34:23.203Z,25.90
2022-10-19T21:36:56.122Z,41.70
2022-10-19T21:39:28.874Z,54.60
2022-10-19T21:42:00.795Z,52.20
2022-10-19T21:44:34.501Z,38.80
2022-10-19T21:47:07.073Z,40.40
2022-10-19T21:49:43.089Z,33.80
2022-10-19T21:52:16.259Z,30.70
2022-10-19T21:54:48.208Z,31.50
2022-10-19T21:57:24.177Z,25.70
2022-10-19T21:59:56.879Z,20.60
2022-10-19T22:02:29.422Z,21.00
2022-10-19T22:05:03.339Z,16.50
2022-10-19T22:07:37.921Z,19.80
2022-10-19T22:10:11.632Z,15.70
2022-10-19T22:12:44.115Z,19.10
2022-10-19T22:15:17.335Z,17.70
2022-10-19T22:17:50.877Z,16.70
2022-10-19T22:20:23.921Z,16.50
2022-10-19T22:22:55.720Z,16.20
2022-10-19T22:25:30.216Z,19.40
2022-10-19T22:28:04.305Z,23.00
2022-10-19T22:33:10.559Z,40.90
2022-10-19T22:35:43.220Z,28.70
2022-10-19T22:38:15.764Z,29.40
2022-10-19T22:40:48.535Z,28.10
2022-10-19T22:43:21.229Z,24.20
2022-10-19T22:45:53.528Z,21.50
2022-10-19T22:48:25.658Z,20.00
2022-10-19T22:51:00.198Z,19.00
2022-10-19T22:53:35.298Z,21.30
2022-10-19T22:56:08.892Z,19.80
2022-10-19T22:58:42.395Z,20.70
2022-10-19T23:01:18.006Z,21.60
2022-10-19T23:03:50.549Z,17.60
2022-10-19T23:06:24.221Z,18.80
2022-10-19T23:08:59.730Z,18.40
2022-10-19T23:11:38.795Z,17.10
2022-10-19T23:14:11.920Z,19.30
2022-10-19T23:16:45.152Z,19.60
2022-10-19T23:19:18.291Z,20.40
2022-10-19T23:21:50.769Z,19.20
2022-10-19T23:24:24.931Z,20.60
2022-10-19T23:26:57.126Z,19.80
2022-10-19T23:29:30.168Z,22.00
2022-10-19T23:32:04.287Z,21.30
2022-10-19T23:34:36.658Z,20.30
2022-10-19T23:37:11.366Z,21.50
2022-10-19T23:39:43.825Z,22.90
2022-10-19T23:42:17.438Z,23.10
2022-10-19T23:44:52.544Z,25.60
2022-10-19T23:47:26.066Z,29.50
2022-10-19T23:50:00.549Z,37.80
2022-10-19T23:52:33.456Z,41.80
2022-10-19T23:55:07.508Z,39.50
2022-10-19T23:57:42.334Z,36.30
